Flight Track Log - Related Links

Times and Time Zones

All times are in EDT time to prevent confusion due to time zone crossing. See the N988PG flight status page for this flight to view local times or setup timezone preferences in your user account.

Time Position Orientation Groundspeed Altitude Reporting Facility
EDT Latitude Longitude Course Direction KTS MPH feet Rate Location/Type
Fri 08:56:33 AM 39.5919 -79.9706 247° West 242 278 4,500  Level Indianapolis Center
Fri 08:57:20 AM 39.5678 -80.0525 249° West 225 259 6,500 2,636 Climbing Cleveland Center
Fri 08:58:20 AM 39.5347 -80.1469 246° West 262 302 9,200 2,250 Climbing Cleveland Center
Fri 08:59:20 AM 39.5039 -80.2442 248° West 284 327 11,000 1,750 Climbing Cleveland Center
Fri 09:00:20 AM 39.4667 -80.3464 245° Southwest 302 348 12,700 1,650 Climbing Cleveland Center
Fri 09:01:00 AM 39.4210 -80.5370 247° West  Level FlightAware Approximate
Fri 09:01:20 AM 39.4333 -80.4514 248° West 314 361 14,300  Level Cleveland Center
Fri 09:02:44 AM 39.3808 -80.5922 244° Southwest 322 371 16,300 1,438 Climbing Indianapolis Center
Fri 09:03:46 AM 39.3439 -80.7000 246° West 327 376 17,800 1,355 Climbing Indianapolis Center
Fri 09:04:48 AM 39.3067 -80.8092 246° West 331 381 19,100 1,355 Climbing Indianapolis Center
Fri 09:05:50 AM 39.2689 -80.9203 246° West 336 387 20,600 1,306 Climbing Indianapolis Center
Fri 09:06:52 AM 39.2228 -81.0539 246° West 341 392 21,800 1,065 Climbing Indianapolis Center
Fri 09:07:54 AM 39.1828 -81.1672 246° West 347 399 22,800 968 Climbing Indianapolis Center
Fri 09:08:56 AM 39.1436 -81.2819 246° West 351 404 23,800 919 Climbing Indianapolis Center
Fri 09:09:58 AM 39.1036 -81.3972 246° West 354 407 24,700 726 Climbing Indianapolis Center
Fri 09:11:00 AM 39.0622 -81.5147 246° West 361 415 25,300 532 Climbing Indianapolis Center
Fri 09:12:02 AM 39.0203 -81.6328 245° Southwest 366 421 25,800 145 Climbing Indianapolis Center
Fri 09:13:04 AM 38.9694 -81.7769 246° West 372 428 25,600 -532 Descending Indianapolis Center
Fri 09:14:06 AM 38.9264 -81.9003 246° West 381 438 24,700 -774 Descending Indianapolis Center
Fri 09:15:08 AM 38.8822 -82.0206 245° Southwest 376 433 24,000 -585 Descending Indianapolis Center
Fri 09:16:09 AM 38.8372 -82.1461 245° Southwest 386 444 23,500 -537 Descending Indianapolis Center
Fri 09:17:11 AM 38.7925 -82.2714 245° Southwest 388 447 22,900 -1,113 Descending Indianapolis Center
Fri 09:18:13 AM 38.7386 -82.4181 245° Southwest 381 438 21,200 -1,500 Descending Indianapolis Center
Fri 09:19:15 AM 38.6950 -82.5392 245° Southwest 376 433 19,800 -1,161 Descending Indianapolis Center
Fri 09:20:17 AM 38.6511 -82.6558 244° Southwest 367 422 18,800 -1,016 Descending Indianapolis Center
Fri 09:21:19 AM 38.6108 -82.7683 245° Southwest 346 398 17,700 -968 Descending Indianapolis Center
Fri 09:22:21 AM 38.5706 -82.8775 245° Southwest 340 391 16,800 -919 Descending Indianapolis Center
Fri 09:23:23 AM 38.5286 -82.9897 244° Southwest 349 402 15,800 -1,065 Descending Indianapolis Center
Fri 09:24:25 AM 38.4806 -83.1211 245° Southwest 350 403 14,600 -919 Descending Indianapolis Center
Fri 09:25:27 AM 38.4406 -83.2297 245° Southwest 340 391 13,900 -581 Descending Indianapolis Center
Fri 09:26:29 AM 38.4003 -83.3344 244° Southwest 333 383 13,400 -484 Descending Indianapolis Center
Fri 09:27:31 AM 38.3606 -83.4381 244° Southwest 328 377 12,900 -532 Descending Indianapolis Center
Fri 09:28:33 AM 38.3214 -83.5450 245° Southwest 332 382 12,300 -532 Descending Indianapolis Center
Fri 09:29:35 AM 38.2756 -83.6667 244° Southwest 328 377 11,800 -532 Descending Indianapolis Center
Fri 09:30:37 AM 38.2353 -83.7706 244° Southwest 328 377 11,200 -387 Descending Indianapolis Center
Fri 09:31:39 AM 38.1936 -83.8803 244° Southwest 328 377 11,000 -488 Descending Indianapolis Center
Fri 09:32:40 AM 38.1731 -83.9767 255° West 306 352 10,200 -1,610 Descending Indianapolis Center
Fri 09:33:42 AM 38.1647 -84.0733 264° West 284 327 7,700 -2,371 Descending Indianapolis Center
Fri 09:34:44 AM 38.1569 -84.1633 264° West 270 311 5,300 -1,887 Descending Indianapolis Center
Fri 09:35:46 AM 38.1456 -84.2639 262° West 255 293 3,800 -1,113 Descending Indianapolis Center
Fri 09:36:48 AM 38.1397 -84.3419 265° West 240 276 3,000 -387 Descending Indianapolis Center
Fri 09:37:50 AM 38.1322 -84.4156 263° West 226 260 3,000  Level Indianapolis Center
Fri 09:38:52 AM 38.1278 -84.4769 265° West 204 235 3,000 -97 Level Indianapolis Center
Fri 09:39:54 AM 38.1153 -84.5281 253° West 188 216 2,800 -435 Descending Indianapolis Center
Fri 09:40:56 AM 38.0806 -84.5581 214° Southwest 149 171 2,100 -701 Descending Indianapolis Center
Fri 09:42:11 AM 38.0489 -84.5917 220° Southwest 118 136 1,200 -720 Descending Indianapolis Center

Login

Don't have an account? Register now (free) for customized features, flight alerts, and more!